createdAt,value
2023-03-02T00:01:55.049Z,8.95
2023-03-02T00:04:52.306Z,8.96
2023-03-02T00:07:26.634Z,8.97
2023-03-02T00:09:54.873Z,8.98
2023-03-02T00:12:22.781Z,8.96
2023-03-02T00:14:50.419Z,8.93
2023-03-02T00:17:18.227Z,8.92
2023-03-02T00:19:45.731Z,8.93
2023-03-02T00:22:13.642Z,8.95
2023-03-02T00:24:41.747Z,8.96
2023-03-02T00:27:09.673Z,8.98
2023-03-02T00:29:37.374Z,8.95
2023-03-02T00:32:06.303Z,8.94
2023-03-02T00:34:33.892Z,8.95
2023-03-02T00:37:01.726Z,8.94
2023-03-02T00:39:30.449Z,8.94
2023-03-02T00:41:58.408Z,8.92
2023-03-02T00:44:25.961Z,8.90
2023-03-02T00:46:53.809Z,8.85
2023-03-02T00:49:21.601Z,8.81
2023-03-02T00:51:50.169Z,8.78
2023-03-02T00:54:17.968Z,8.77
2023-03-02T00:56:45.903Z,8.77
2023-03-02T00:59:29.275Z,8.76
2023-03-02T01:02:18.857Z,8.74
2023-03-02T01:04:46.945Z,8.73
2023-03-02T01:07:18.433Z,8.72
2023-03-02T01:09:48.570Z,8.71
2023-03-02T01:12:17.049Z,8.67
2023-03-02T01:14:48.368Z,8.68
2023-03-02T01:17:17.144Z,8.66
2023-03-02T01:19:44.945Z,8.69
2023-03-02T01:22:12.773Z,8.69
2023-03-02T01:24:40.453Z,8.68
2023-03-02T01:27:08.563Z,8.69
2023-03-02T01:29:36.333Z,8.72
2023-03-02T01:32:04.728Z,8.74
2023-03-02T01:34:32.565Z,8.72
2023-03-02T01:37:00.511Z,8.71
2023-03-02T01:39:28.071Z,8.73
2023-03-02T01:41:56.177Z,8.74
2023-03-02T01:44:45.680Z,8.76
2023-03-02T01:47:18.652Z,8.78
2023-03-02T01:50:17.939Z,8.77
2023-03-02T01:52:46.647Z,8.75
2023-03-02T01:55:22.130Z,8.73
2023-03-02T01:57:52.148Z,8.75
2023-03-02T02:00:28.663Z,8.75
2023-03-02T02:03:09.283Z,8.75
2023-03-02T02:05:43.292Z,8.75
2023-03-02T02:08:11.369Z,8.77
2023-03-02T02:10:40.770Z,8.80
2023-03-02T02:13:12.024Z,8.83
2023-03-02T02:15:40.563Z,8.84
2023-03-02T02:18:09.098Z,8.82
2023-03-02T02:20:48.921Z,8.86
2023-03-02T02:23:46.808Z,8.88
2023-03-02T02:26:33.004Z,8.89
2023-03-02T02:29:26.163Z,8.88
2023-03-02T02:32:02.854Z,8.90
2023-03-02T02:34:59.008Z,8.90
2023-03-02T02:37:39.740Z,8.94
2023-03-02T02:40:20.770Z,9.03
2023-03-02T02:42:52.577Z,9.05
2023-03-02T02:45:30.847Z,9.07
2023-03-02T02:47:58.935Z,9.06
2023-03-02T02:50:32.205Z,9.03
2023-03-02T02:53:10.150Z,9.01
2023-03-02T02:55:39.192Z,8.98
2023-03-02T02:58:44.717Z,8.97
2023-03-02T03:01:19.139Z,8.92
2023-03-02T03:03:57.730Z,8.91
2023-03-02T03:06:38.242Z,8.90
2023-03-02T03:09:08.776Z,8.90
2023-03-02T03:11:46.575Z,8.90
2023-03-02T03:14:18.809Z,8.90
2023-03-02T03:16:50.226Z,8.89
2023-03-02T03:19:35.526Z,8.88
2023-03-02T03:22:03.452Z,8.88
2023-03-02T03:24:35.925Z,8.89
2023-03-02T03:27:07.489Z,8.88
2023-03-02T03:29:41.341Z,8.89
2023-03-02T03:32:11.209Z,8.92
2023-03-02T03:34:41.706Z,8.92
2023-03-02T03:37:19.685Z,8.91
2023-03-02T03:39:48.099Z,8.89
2023-03-02T03:42:18.277Z,8.88
2023-03-02T03:44:47.174Z,8.90
2023-03-02T03:47:15.719Z,8.91
2023-03-02T03:49:43.777Z,8.91
2023-03-02T03:52:11.957Z,8.89
2023-03-02T03:54:39.663Z,8.88
2023-03-02T03:57:08.295Z,8.92
2023-03-02T03:59:35.849Z,8.91
2023-03-02T04:02:04.872Z,8.93
2023-03-02T04:04:37.131Z,8.92
2023-03-02T04:07:10.163Z,8.92
2023-03-02T04:09:39.397Z,8.88
2023-03-02T04:12:12.820Z,8.87
2023-03-02T04:14:45.681Z,8.88
2023-03-02T04:17:13.832Z,8.87
2023-03-02T04:19:45.861Z,8.88
2023-03-02T04:22:15.332Z,8.88
2023-03-02T04:24:43.991Z,8.87
2023-03-02T04:27:13.699Z,8.85
2023-03-02T04:29:41.541Z,8.82
2023-03-02T04:32:09.921Z,8.79
2023-03-02T04:34:39.357Z,8.77
2023-03-02T04:37:07.589Z,8.75
2023-03-02T04:39:35.294Z,8.77
2023-03-02T04:42:03.262Z,8.82
2023-03-02T04:44:31.005Z,8.85
2023-03-02T04:46:59.149Z,8.87
2023-03-02T04:49:26.903Z,8.90
2023-03-02T04:51:54.811Z,8.92
2023-03-02T04:54:26.479Z,8.93
2023-03-02T04:56:55.549Z,8.90
2023-03-02T04:59:26.891Z,8.88
2023-03-02T05:01:58.932Z,8.88
2023-03-02T05:04:28.742Z,8.87
2023-03-02T05:06:57.820Z,8.87
2023-03-02T05:09:30.986Z,8.88
2023-03-02T05:12:01.030Z,8.85
2023-03-02T05:14:29.403Z,8.85
2023-03-02T05:16:58.013Z,8.86
2023-03-02T05:19:25.909Z,8.87
2023-03-02T05:21:53.901Z,8.87
2023-03-02T05:24:21.692Z,8.85
2023-03-02T05:26:50.494Z,8.86
2023-03-02T05:29:17.988Z,8.87
2023-03-02T05:31:47.365Z,8.90
2023-03-02T05:34:17.362Z,8.90
2023-03-02T05:36:45.871Z,8.93
2023-03-02T05:39:13.931Z,8.95
2023-03-02T05:41:42.493Z,8.98
2023-03-02T05:44:12.155Z,8.98
2023-03-02T05:46:40.345Z,9.00
2023-03-02T05:49:07.985Z,9.01
2023-03-02T05:51:35.849Z,9.03
2023-03-02T05:54:03.432Z,9.01
2023-03-02T05:56:31.759Z,9.02
2023-03-02T05:58:59.478Z,8.98
2023-03-02T06:01:27.409Z,8.96
2023-03-02T06:03:54.881Z,8.96
2023-03-02T06:06:22.721Z,8.97
2023-03-02T06:08:50.330Z,8.96
2023-03-02T06:11:18.182Z,8.99
2023-03-02T06:13:45.655Z,9.02
2023-03-02T06:16:13.689Z,9.03
2023-03-02T06:18:41.714Z,9.05
2023-03-02T06:21:10.055Z,9.08
2023-03-02T06:23:37.747Z,9.10
2023-03-02T06:26:12.196Z,9.13
2023-03-02T06:28:51.496Z,9.14
2023-03-02T06:31:21.914Z,9.17
2023-03-02T06:33:49.931Z,9.20
2023-03-02T06:36:18.283Z,9.21
2023-03-02T06:38:46.294Z,9.24
2023-03-02T06:41:15.523Z,9.25
2023-03-02T06:43:43.438Z,9.26
2023-03-02T06:46:12.300Z,9.29
2023-03-02T06:48:39.921Z,9.32
2023-03-02T06:51:08.393Z,9.38
2023-03-02T06:53:36.134Z,9.42
2023-03-02T06:56:04.535Z,9.48
2023-03-02T06:58:32.085Z,9.50
2023-03-02T07:01:00.538Z,9.50
2023-03-02T07:03:28.205Z,9.56
2023-03-02T07:05:56.365Z,9.57
2023-03-02T07:08:24.184Z,9.60
2023-03-02T07:10:52.151Z,9.60
2023-03-02T07:13:19.877Z,9.67
2023-03-02T07:15:47.774Z,9.82
2023-03-02T07:18:15.400Z,9.86
2023-03-02T07:20:43.320Z,9.87
2023-03-02T07:23:10.946Z,9.85
2023-03-02T07:25:38.753Z,9.81
2023-03-02T07:28:06.218Z,9.80
2023-03-02T07:30:34.156Z,9.78
2023-03-02T07:33:01.966Z,9.77
2023-03-02T07:35:29.780Z,9.76
2023-03-02T07:37:57.410Z,9.71
2023-03-02T07:40:25.262Z,9.77
2023-03-02T07:42:52.818Z,9.80
2023-03-02T07:45:24.892Z,9.78
2023-03-02T07:47:52.760Z,9.79
2023-03-02T07:50:20.629Z,9.80
2023-03-02T07:52:48.134Z,9.79
2023-03-02T07:55:16.052Z,9.74
2023-03-02T07:57:43.629Z,9.69
2023-03-02T08:00:12.360Z,9.64
2023-03-02T08:02:41.938Z,9.62
2023-03-02T08:05:11.866Z,9.61
2023-03-02T08:07:40.679Z,9.58
2023-03-02T08:10:09.731Z,9.56
2023-03-02T08:12:37.762Z,9.60
2023-03-02T08:15:06.612Z,9.60
2023-03-02T08:17:34.167Z,9.61
2023-03-02T08:20:02.052Z,9.62
2023-03-02T08:22:29.720Z,9.63
2023-03-02T08:24:57.479Z,9.63
2023-03-02T08:27:25.020Z,9.62
2023-03-02T08:29:54.263Z,9.59
2023-03-02T08:32:21.969Z,9.63
2023-03-02T08:34:51.889Z,9.60
2023-03-02T08:37:20.217Z,9.59
2023-03-02T08:39:48.632Z,9.55
2023-03-02T08:42:16.413Z,9.54
2023-03-02T08:44:44.744Z,9.53
2023-03-02T08:47:12.995Z,9.60
2023-03-02T08:49:41.269Z,9.62
2023-03-02T08:52:08.906Z,9.64
2023-03-02T08:54:37.613Z,9.64
2023-03-02T08:57:09.578Z,9.59
2023-03-02T08:59:37.623Z,9.58
2023-03-02T09:02:05.276Z,9.62
2023-03-02T09:04:35.251Z,9.65
2023-03-02T09:07:02.778Z,9.64
2023-03-02T09:09:30.715Z,9.62
2023-03-02T09:11:58.368Z,9.67
2023-03-02T09:14:27.563Z,9.79
2023-03-02T09:16:55.483Z,9.86
2023-03-02T09:19:23.490Z,9.89
2023-03-02T09:21:51.212Z,9.92
2023-03-02T09:24:19.072Z,9.86
2023-03-02T09:26:46.809Z,9.81
2023-03-02T09:29:14.725Z,9.72
2023-03-02T09:31:42.729Z,9.66
2023-03-02T09:34:10.651Z,9.55
2023-03-02T09:36:38.508Z,9.43
2023-03-02T09:39:12.354Z,9.46
2023-03-02T09:42:00.060Z,9.57
2023-03-02T09:45:03.528Z,9.72
2023-03-02T09:47:59.456Z,9.77
2023-03-02T09:50:41.327Z,9.84
2023-03-02T09:53:39.011Z,9.90
2023-03-02T09:56:17.203Z,10.03
2023-03-02T09:59:11.169Z,10.17
2023-03-02T10:01:46.617Z,10.22
2023-03-02T10:04:33.523Z,10.29
2023-03-02T10:07:22.533Z,10.42
2023-03-02T10:09:50.059Z,10.44
2023-03-02T10:13:21.636Z,10.55
2023-03-02T10:16:19.462Z,10.60
2023-03-02T10:19:06.129Z,10.58
2023-03-02T10:21:41.831Z,10.44
2023-03-02T10:24:39.689Z,10.33
2023-03-02T10:27:24.668Z,10.27
2023-03-02T10:30:06.598Z,10.18
2023-03-02T10:32:47.883Z,10.17
2023-03-02T10:35:28.932Z,10.28
2023-03-02T10:38:19.578Z,10.33
2023-03-02T10:41:06.789Z,10.39
2023-03-02T10:43:47.819Z,10.48
2023-03-02T10:46:16.231Z,10.57
2023-03-02T10:48:56.797Z,10.60
2023-03-02T10:51:29.140Z,10.63
2023-03-02T10:54:12.396Z,10.64
2023-03-02T10:56:50.418Z,10.65
2023-03-02T10:59:29.248Z,10.65
2023-03-02T11:02:02.665Z,10.60
2023-03-02T11:04:32.127Z,10.54
2023-03-02T11:07:20.978Z,10.51
2023-03-02T11:10:07.047Z,10.50
2023-03-02T11:12:37.914Z,10.49
2023-03-02T11:15:17.324Z,10.45
2023-03-02T11:17:48.303Z,10.37
2023-03-02T11:20:41.318Z,10.34
2023-03-02T11:23:49.660Z,10.31
2023-03-02T11:26:34.111Z,10.34
2023-03-02T11:29:22.645Z,10.44
2023-03-02T11:32:14.508Z,10.47
2023-03-02T11:35:12.379Z,10.46
2023-03-02T11:37:51.970Z,10.46
2023-03-02T11:40:53.685Z,10.45
2023-03-02T11:43:21.300Z,10.47
2023-03-02T11:46:10.868Z,10.56
2023-03-02T11:48:49.635Z,10.66
2023-03-02T11:51:36.914Z,10.71
2023-03-02T11:54:53.370Z,10.76
2023-03-02T11:57:33.245Z,10.80
2023-03-02T12:00:01.888Z,10.94
2023-03-02T12:02:29.732Z,11.04
2023-03-02T12:05:08.166Z,11.09
2023-03-02T12:07:36.926Z,11.10
2023-03-02T12:10:22.949Z,11.10
2023-03-02T12:13:34.646Z,11.21
2023-03-02T12:16:02.599Z,11.30
2023-03-02T12:18:44.682Z,11.48
2023-03-02T12:21:16.482Z,11.56
2023-03-02T12:23:49.988Z,11.56
2023-03-02T12:26:20.408Z,11.52
2023-03-02T12:29:11.856Z,11.48
2023-03-02T12:31:48.690Z,11.45
2023-03-02T12:34:35.260Z,11.50
2023-03-02T12:37:21.828Z,11.62
2023-03-02T12:40:33.010Z,11.80
2023-03-02T12:43:31.818Z,11.99
2023-03-02T12:46:33.227Z,12.15
2023-03-02T12:49:30.447Z,12.42
2023-03-02T12:52:01.682Z,12.62
2023-03-02T12:54:33.194Z,12.74
2023-03-02T12:57:17.693Z,12.84
2023-03-02T12:59:59.306Z,12.79
2023-03-02T13:02:29.833Z,12.76
2023-03-02T13:05:05.196Z,12.66
2023-03-02T13:07:43.463Z,12.61
2023-03-02T13:10:41.866Z,12.64
2023-03-02T13:13:22.939Z,12.59
2023-03-02T13:15:57.353Z,12.56
2023-03-02T13:18:32.751Z,12.58
2023-03-02T13:21:02.399Z,12.60
2023-03-02T13:23:33.774Z,12.64
2023-03-02T13:26:05.736Z,12.73
2023-03-02T13:28:36.532Z,12.83
2023-03-02T13:31:23.217Z,12.84
2023-03-02T13:33:54.687Z,12.89
2023-03-02T13:36:35.435Z,13.03
2023-03-02T13:39:07.148Z,13.10
2023-03-02T13:41:37.352Z,13.14
2023-03-02T13:44:19.990Z,13.06
2023-03-02T13:46:48.732Z,12.98
2023-03-02T13:49:34.039Z,12.90
2023-03-02T13:52:07.047Z,12.78
2023-03-02T13:54:37.622Z,12.65
2023-03-02T13:57:06.429Z,12.53
2023-03-02T13:59:36.712Z,12.42
2023-03-02T14:02:21.432Z,12.36
2023-03-02T14:04:49.320Z,12.35
2023-03-02T14:07:17.705Z,12.37
2023-03-02T14:09:45.946Z,12.42
2023-03-02T14:12:28.607Z,12.53
2023-03-02T14:15:00.517Z,12.52
2023-03-02T14:17:28.385Z,12.48
2023-03-02T14:19:56.829Z,12.46
2023-03-02T14:22:27.385Z,12.37
2023-03-02T14:24:55.288Z,12.22
2023-03-02T14:27:29.700Z,12.07
2023-03-02T14:29:58.162Z,11.94
2023-03-02T14:32:25.672Z,11.85
2023-03-02T14:34:53.495Z,11.78
2023-03-02T14:37:25.270Z,11.75
2023-03-02T14:39:56.932Z,11.65
2023-03-02T14:42:24.630Z,11.60
2023-03-02T14:44:53.039Z,11.57
2023-03-02T14:47:21.882Z,11.55
2023-03-02T14:49:49.922Z,11.62
2023-03-02T14:52:30.661Z,11.65
2023-03-02T14:55:06.653Z,11.60
2023-03-02T14:57:38.729Z,11.58
2023-03-02T15:00:13.053Z,11.54
2023-03-02T15:02:41.316Z,11.43
2023-03-02T15:05:09.749Z,11.30
2023-03-02T15:07:39.023Z,11.17
2023-03-02T15:10:12.406Z,11.05
2023-03-02T15:12:39.990Z,11.02
2023-03-02T15:15:08.967Z,11.00
2023-03-02T15:17:36.549Z,10.96
2023-03-02T15:20:06.273Z,10.87
2023-03-02T15:22:34.226Z,10.87
2023-03-02T15:25:02.262Z,10.78
2023-03-02T15:27:32.098Z,10.68
2023-03-02T15:29:59.905Z,10.65
2023-03-02T15:32:27.480Z,10.59
2023-03-02T15:34:55.376Z,10.53
2023-03-02T15:37:22.802Z,10.48
2023-03-02T15:39:55.810Z,10.45
2023-03-02T15:42:24.019Z,10.44
2023-03-02T15:44:51.886Z,10.48
2023-03-02T15:47:19.410Z,10.51
2023-03-02T15:49:47.131Z,10.48
2023-03-02T15:52:14.870Z,10.52
2023-03-02T15:54:42.697Z,10.60
2023-03-02T15:57:10.303Z,10.61
2023-03-02T15:59:38.183Z,10.64
2023-03-02T16:02:05.730Z,10.69
2023-03-02T16:04:34.233Z,10.74
2023-03-02T16:07:02.284Z,10.77
2023-03-02T16:09:31.058Z,10.72
2023-03-02T16:11:58.836Z,10.69
2023-03-02T16:14:26.646Z,10.63
2023-03-02T16:16:54.418Z,10.57
2023-03-02T16:19:22.282Z,10.48
2023-03-02T16:21:49.787Z,10.40
2023-03-02T16:24:17.714Z,10.37
2023-03-02T16:26:45.675Z,10.37
2023-03-02T16:29:14.310Z,10.44
2023-03-02T16:31:45.330Z,10.47
2023-03-02T16:34:14.083Z,10.42
2023-03-02T16:36:42.472Z,10.41
2023-03-02T16:39:12.133Z,10.43
2023-03-02T16:41:43.020Z,10.38
2023-03-02T16:44:13.553Z,10.25
2023-03-02T16:46:43.728Z,10.09
2023-03-02T16:49:13.577Z,9.96
2023-03-02T16:51:44.398Z,9.83
2023-03-02T16:54:18.322Z,9.70
2023-03-02T16:56:47.593Z,9.58
2023-03-02T16:59:16.160Z,9.48
2023-03-02T17:01:43.915Z,9.44
2023-03-02T17:04:11.895Z,9.39
2023-03-02T17:06:45.748Z,9.35
2023-03-02T17:09:22.620Z,9.35
2023-03-02T17:11:50.014Z,9.32
2023-03-02T17:14:17.856Z,9.31
2023-03-02T17:16:45.440Z,9.31
2023-03-02T17:19:13.232Z,9.27
2023-03-02T17:21:40.945Z,9.25
2023-03-02T17:24:08.862Z,9.18
2023-03-02T17:26:36.395Z,9.13
2023-03-02T17:29:04.228Z,9.06
2023-03-02T17:31:31.934Z,9.02
2023-03-02T17:33:59.827Z,8.95
2023-03-02T17:36:27.376Z,8.89
2023-03-02T17:38:55.350Z,8.86
2023-03-02T17:41:22.829Z,8.82
2023-03-02T17:43:50.732Z,8.76
2023-03-02T17:46:23.406Z,8.71
2023-03-02T17:48:57.757Z,8.66
2023-03-02T17:51:28.104Z,8.64
2023-03-02T17:53:56.720Z,8.59
2023-03-02T17:56:27.939Z,8.55
2023-03-02T17:59:02.109Z,8.53
2023-03-02T18:01:30.069Z,8.53
2023-03-02T18:03:59.019Z,8.49
2023-03-02T18:06:27.631Z,8.49
2023-03-02T18:08:55.565Z,8.47
2023-03-02T18:11:24.411Z,8.48
2023-03-02T18:13:56.800Z,8.48
2023-03-02T18:16:26.600Z,8.47
2023-03-02T18:18:55.193Z,8.41
2023-03-02T18:21:23.123Z,8.38
2023-03-02T18:23:51.669Z,8.36
2023-03-02T18:26:19.521Z,8.37
2023-03-02T18:28:47.309Z,8.35
2023-03-02T18:31:17.198Z,8.35
2023-03-02T18:33:45.614Z,8.36
2023-03-02T18:36:14.429Z,8.38
2023-03-02T18:38:43.148Z,8.36
2023-03-02T18:41:12.674Z,8.35
2023-03-02T18:43:42.798Z,8.36
2023-03-02T18:46:25.903Z,8.35
2023-03-02T18:48:55.337Z,8.37
2023-03-02T18:51:25.427Z,8.63
2023-03-02T18:53:54.468Z,8.91
2023-03-02T18:56:22.697Z,9.16
2023-03-02T18:58:51.519Z,9.35
2023-03-02T19:01:19.836Z,9.53
2023-03-02T19:03:49.092Z,9.71
2023-03-02T19:06:16.908Z,9.78
2023-03-02T19:08:44.717Z,9.90
2023-03-02T19:11:12.316Z,9.93
2023-03-02T19:13:39.709Z,9.89
2023-03-02T19:16:07.923Z,9.87
2023-03-02T19:18:35.624Z,9.84
2023-03-02T19:21:05.286Z,9.74
2023-03-02T19:23:33.106Z,9.55
2023-03-02T19:26:01.621Z,9.29
2023-03-02T19:28:29.256Z,9.10
2023-03-02T19:30:57.220Z,8.91
2023-03-02T19:33:24.975Z,8.80
2023-03-02T19:35:52.864Z,8.68
2023-03-02T19:38:22.742Z,8.61
2023-03-02T19:40:50.569Z,8.54
2023-03-02T19:43:20.385Z,8.50
2023-03-02T19:45:48.445Z,8.43
2023-03-02T19:48:16.091Z,8.39
2023-03-02T19:50:45.454Z,8.32
2023-03-02T19:53:14.468Z,8.28
2023-03-02T19:55:42.851Z,8.23
2023-03-02T19:58:16.910Z,8.22
2023-03-02T20:00:46.198Z,8.17
2023-03-02T20:03:14.030Z,8.12
2023-03-02T20:05:42.451Z,8.08
2023-03-02T20:08:10.040Z,8.05
2023-03-02T20:10:43.430Z,8.01
2023-03-02T20:13:12.201Z,8.00
2023-03-02T20:15:44.995Z,7.96
2023-03-02T20:18:18.821Z,7.94
2023-03-02T20:20:48.639Z,7.92
2023-03-02T20:23:17.744Z,7.87
2023-03-02T20:25:48.315Z,7.88
2023-03-02T20:28:20.842Z,7.88
2023-03-02T20:30:56.910Z,7.86
2023-03-02T20:33:30.552Z,7.88
2023-03-02T20:36:00.850Z,7.86
2023-03-02T20:38:35.225Z,7.89
2023-03-02T20:41:06.081Z,7.85
2023-03-02T20:43:34.156Z,7.84
2023-03-02T20:46:02.321Z,7.83
2023-03-02T20:48:29.948Z,7.85
2023-03-02T20:50:58.028Z,7.82
2023-03-02T20:53:27.426Z,7.80
2023-03-02T20:55:56.639Z,7.79
2023-03-02T20:58:24.225Z,7.77
2023-03-02T21:00:53.865Z,7.77
2023-03-02T21:03:21.911Z,7.72
2023-03-02T21:05:49.827Z,7.70
2023-03-02T21:08:17.310Z,7.68
2023-03-02T21:10:45.556Z,7.68
2023-03-02T21:13:13.565Z,7.70
2023-03-02T21:15:41.626Z,7.72
2023-03-02T21:18:09.304Z,7.72
2023-03-02T21:20:37.629Z,7.71
2023-03-02T21:23:05.842Z,7.71
2023-03-02T21:25:33.781Z,7.73
2023-03-02T21:28:02.387Z,7.71
2023-03-02T21:30:35.337Z,7.71
2023-03-02T21:33:03.650Z,7.69
2023-03-02T21:35:31.903Z,7.68
2023-03-02T21:38:04.194Z,7.70
2023-03-02T21:40:40.845Z,7.67
2023-03-02T21:43:09.883Z,7.69
2023-03-02T21:45:37.902Z,7.75
2023-03-02T21:48:06.723Z,7.76
2023-03-02T21:50:38.538Z,7.78
2023-03-02T21:53:06.656Z,7.79
2023-03-02T21:55:35.422Z,7.80
2023-03-02T21:58:03.186Z,7.84
2023-03-02T22:00:35.849Z,7.84
2023-03-02T22:03:03.861Z,7.82
2023-03-02T22:05:33.495Z,7.79
2023-03-02T22:08:01.343Z,7.78
2023-03-02T22:10:45.137Z,7.78
2023-03-02T22:13:32.873Z,7.81
2023-03-02T22:16:16.081Z,7.79
2023-03-02T22:18:45.687Z,7.79
2023-03-02T22:21:31.548Z,7.77
2023-03-02T22:24:17.925Z,7.77
2023-03-02T22:27:05.005Z,7.76
2023-03-02T22:29:41.265Z,7.77
2023-03-02T22:32:18.351Z,7.75
2023-03-02T22:34:48.950Z,7.73
2023-03-02T22:37:24.925Z,7.73
2023-03-02T22:40:00.932Z,7.79
2023-03-02T22:42:30.967Z,8.01
2023-03-02T22:45:17.370Z,8.28
2023-03-02T22:47:51.464Z,8.48
2023-03-02T22:50:29.963Z,8.65
2023-03-02T22:53:18.945Z,8.78
2023-03-02T22:55:48.220Z,8.73
2023-03-02T22:58:21.944Z,8.61
2023-03-02T23:00:49.546Z,8.48
2023-03-02T23:03:39.878Z,8.36
2023-03-02T23:06:37.260Z,8.23
2023-03-02T23:09:06.905Z,8.11
2023-03-02T23:11:39.482Z,8.07
2023-03-02T23:14:47.740Z,8.01
2023-03-02T23:17:40.852Z,7.98
2023-03-02T23:20:14.973Z,7.97
2023-03-02T23:22:43.354Z,7.98
2023-03-02T23:25:11.502Z,8.01
2023-03-02T23:27:38.981Z,8.01
2023-03-02T23:30:08.679Z,8.00
2023-03-02T23:32:36.694Z,7.98
2023-03-02T23:35:05.012Z,7.98
2023-03-02T23:37:33.208Z,7.93
2023-03-02T23:40:01.294Z,7.91
2023-03-02T23:42:28.841Z,7.87
2023-03-02T23:44:56.874Z,7.88
2023-03-02T23:47:25.089Z,7.86
2023-03-02T23:49:53.039Z,7.85
2023-03-02T23:52:20.842Z,7.83
2023-03-02T23:54:49.296Z,7.90
2023-03-02T23:57:17.338Z,7.92
2023-03-02T23:59:45.549Z,7.93
